createdAt,value
2023-03-29T00:01:11.996Z,50.21
2023-03-29T00:03:59.266Z,49.93
2023-03-29T00:06:27.504Z,48.29
2023-03-29T00:08:53.897Z,48.36
2023-03-29T00:11:20.311Z,48.34
2023-03-29T00:13:46.692Z,47.73
2023-03-29T00:16:13.064Z,47.24
2023-03-29T00:18:39.476Z,48.08
2023-03-29T00:21:05.861Z,48.09
2023-03-29T00:23:32.279Z,48.60
2023-03-29T00:25:58.670Z,48.53
2023-03-29T00:28:25.089Z,47.50
2023-03-29T00:30:51.487Z,48.00
2023-03-29T00:33:17.868Z,46.69
2023-03-29T00:35:44.301Z,46.04
2023-03-29T00:38:10.715Z,47.39
2023-03-29T00:40:37.118Z,47.53
2023-03-29T00:43:03.542Z,48.78
2023-03-29T00:45:29.959Z,49.43
2023-03-29T00:47:56.461Z,50.83
2023-03-29T00:50:22.895Z,51.08
2023-03-29T00:52:49.293Z,51.74
2023-03-29T00:55:15.703Z,51.79
2023-03-29T00:57:42.123Z,51.99
2023-03-29T01:00:08.539Z,49.54
2023-03-29T01:02:35.180Z,50.45
2023-03-29T01:05:01.632Z,49.70
2023-03-29T01:07:28.010Z,48.32
2023-03-29T01:09:54.397Z,49.43
2023-03-29T01:12:20.796Z,50.36
2023-03-29T01:14:47.203Z,49.38
2023-03-29T01:17:13.606Z,49.16
2023-03-29T01:19:39.999Z,50.06
2023-03-29T01:22:06.364Z,50.89
2023-03-29T01:24:32.759Z,52.27
2023-03-29T01:26:59.144Z,51.51
2023-03-29T01:29:25.529Z,50.61
2023-03-29T01:31:51.990Z,48.43
2023-03-29T01:34:18.392Z,47.71
2023-03-29T01:36:44.833Z,47.83
2023-03-29T01:39:11.219Z,47.80
2023-03-29T01:41:37.614Z,47.27
2023-03-29T01:44:04.024Z,47.17
2023-03-29T01:46:30.448Z,46.85
2023-03-29T01:48:56.939Z,47.27
2023-03-29T01:51:23.347Z,46.75
2023-03-29T01:53:49.746Z,47.24
2023-03-29T01:56:16.146Z,47.84
2023-03-29T01:58:42.520Z,46.92
2023-03-29T02:01:09.114Z,47.13
2023-03-29T02:03:35.633Z,46.85
2023-03-29T02:06:02.104Z,46.94
2023-03-29T02:08:28.521Z,47.94
2023-03-29T02:10:54.957Z,47.10
2023-03-29T02:13:21.374Z,47.58
2023-03-29T02:15:47.829Z,47.86
2023-03-29T02:18:14.221Z,47.61
2023-03-29T02:20:40.659Z,47.14
2023-03-29T02:23:07.088Z,47.45
2023-03-29T02:25:33.491Z,47.04
2023-03-29T02:27:59.888Z,46.56
2023-03-29T02:30:26.281Z,45.49
2023-03-29T02:32:52.735Z,44.57
2023-03-29T02:35:19.131Z,42.55
2023-03-29T02:37:45.509Z,41.88
2023-03-29T02:40:11.947Z,41.82
2023-03-29T02:42:38.321Z,42.89
2023-03-29T02:45:05.961Z,43.27
2023-03-29T02:47:32.429Z,43.34
2023-03-29T02:49:58.845Z,42.79
2023-03-29T02:52:25.221Z,41.93
2023-03-29T02:54:51.595Z,42.34
2023-03-29T02:57:18.034Z,43.18
2023-03-29T02:59:44.512Z,42.86
2023-03-29T03:02:10.942Z,42.66
2023-03-29T03:04:37.352Z,43.23
2023-03-29T03:07:03.743Z,42.23
2023-03-29T03:09:30.110Z,42.69
2023-03-29T03:11:56.486Z,41.67
2023-03-29T03:14:22.952Z,40.84
2023-03-29T03:16:49.571Z,40.12
2023-03-29T03:19:16.035Z,41.19
2023-03-29T03:21:42.447Z,40.72
2023-03-29T03:24:08.822Z,41.26
2023-03-29T03:26:35.221Z,40.30
2023-03-29T03:29:01.606Z,41.33
2023-03-29T03:31:28.032Z,41.92
2023-03-29T03:33:54.474Z,42.25
2023-03-29T03:36:20.863Z,42.57
2023-03-29T03:38:47.230Z,43.01
2023-03-29T03:41:13.674Z,43.96
2023-03-29T03:43:40.069Z,44.56
2023-03-29T03:46:06.493Z,44.48
2023-03-29T03:48:32.981Z,44.37
2023-03-29T03:50:59.595Z,44.10
2023-03-29T03:53:26.064Z,44.52
2023-03-29T03:55:52.451Z,45.44
2023-03-29T03:58:18.868Z,46.11
2023-03-29T04:00:45.282Z,46.54
2023-03-29T04:03:11.783Z,46.57
2023-03-29T04:05:38.305Z,46.79
2023-03-29T04:08:04.683Z,46.34
2023-03-29T04:10:31.087Z,46.24
2023-03-29T04:12:57.503Z,47.17
2023-03-29T04:15:24.112Z,47.39
2023-03-29T04:17:50.673Z,47.28
2023-03-29T04:20:17.101Z,47.03
2023-03-29T04:22:43.534Z,46.49
2023-03-29T04:25:09.920Z,46.16
2023-03-29T04:27:36.296Z,46.85
2023-03-29T04:30:02.696Z,46.97
2023-03-29T04:32:29.217Z,46.98
2023-03-29T04:34:55.656Z,45.99
2023-03-29T04:37:22.062Z,44.98
2023-03-29T04:39:48.464Z,45.64
2023-03-29T04:42:14.862Z,45.90
2023-03-29T04:44:41.316Z,46.69
2023-03-29T04:47:07.765Z,47.25
2023-03-29T04:49:34.172Z,46.69
2023-03-29T04:52:00.554Z,47.03
2023-03-29T04:54:26.962Z,47.25
2023-03-29T04:56:53.395Z,47.18
2023-03-29T04:59:19.801Z,47.63
2023-03-29T05:01:46.231Z,47.62
2023-03-29T05:04:12.980Z,47.88
2023-03-29T05:06:39.459Z,47.69
2023-03-29T05:09:05.898Z,47.26
2023-03-29T05:11:32.295Z,47.38
2023-03-29T05:13:58.720Z,47.36
2023-03-29T05:16:25.199Z,47.62
2023-03-29T05:18:51.647Z,47.12
2023-03-29T05:21:18.032Z,47.34
2023-03-29T05:23:44.526Z,47.33
2023-03-29T05:26:10.916Z,47.84
2023-03-29T05:28:37.300Z,47.34
2023-03-29T05:31:03.866Z,47.63
2023-03-29T05:33:30.365Z,47.21
2023-03-29T05:35:56.756Z,47.43
2023-03-29T05:38:23.155Z,46.81
2023-03-29T05:40:49.592Z,47.53
2023-03-29T05:43:15.974Z,47.93
2023-03-29T05:45:42.431Z,47.75
2023-03-29T05:48:08.888Z,47.81
2023-03-29T05:50:35.322Z,48.01
2023-03-29T05:53:01.725Z,47.99
2023-03-29T05:55:28.150Z,47.40
2023-03-29T05:57:54.572Z,47.65
2023-03-29T06:00:20.966Z,47.40
2023-03-29T06:02:47.486Z,47.62
2023-03-29T06:05:13.940Z,47.62
2023-03-29T06:07:40.329Z,47.36
2023-03-29T06:10:06.766Z,47.32
2023-03-29T06:12:33.199Z,47.94
2023-03-29T06:14:59.640Z,47.56
2023-03-29T06:17:26.074Z,47.94
2023-03-29T06:19:52.613Z,47.48
2023-03-29T06:22:19.027Z,46.93
2023-03-29T06:24:45.409Z,46.85
2023-03-29T06:27:11.786Z,47.00
2023-03-29T06:29:38.273Z,47.63
2023-03-29T06:32:04.698Z,47.29
2023-03-29T06:34:31.080Z,47.02
2023-03-29T06:36:57.496Z,47.29
2023-03-29T06:39:23.893Z,47.29
2023-03-29T06:41:50.268Z,46.95
2023-03-29T06:44:16.646Z,47.10
2023-03-29T06:46:43.217Z,47.08
2023-03-29T06:49:09.653Z,47.15
2023-03-29T06:51:36.063Z,46.60
2023-03-29T06:54:02.467Z,45.52
2023-03-29T06:56:28.860Z,47.25
2023-03-29T06:58:55.263Z,46.19
2023-03-29T07:01:21.797Z,45.00
2023-03-29T07:03:48.388Z,44.41
2023-03-29T07:06:14.825Z,44.84
2023-03-29T07:08:41.393Z,44.95
2023-03-29T07:11:07.768Z,43.62
2023-03-29T07:13:34.138Z,44.53
2023-03-29T07:16:00.546Z,43.79
2023-03-29T07:18:26.977Z,42.94
2023-03-29T07:20:53.363Z,43.62
2023-03-29T07:23:19.748Z,41.71
2023-03-29T07:25:46.137Z,43.57
2023-03-29T07:28:12.562Z,43.39
2023-03-29T07:30:38.989Z,43.52
2023-03-29T07:33:05.511Z,43.62
2023-03-29T07:35:32.015Z,43.22
2023-03-29T07:37:58.462Z,44.54
2023-03-29T07:40:24.892Z,43.90
2023-03-29T07:42:51.315Z,44.51
2023-03-29T07:45:17.723Z,44.60
2023-03-29T07:47:44.147Z,45.12
2023-03-29T07:50:10.582Z,45.10
2023-03-29T07:52:37.005Z,44.80
2023-03-29T07:55:03.413Z,44.90
2023-03-29T07:57:29.814Z,43.70
2023-03-29T07:59:56.231Z,44.08
2023-03-29T08:02:22.635Z,44.99
2023-03-29T08:04:49.047Z,45.43
2023-03-29T08:07:17.050Z,45.03
2023-03-29T08:09:45.247Z,45.29
2023-03-29T08:12:11.649Z,45.10
2023-03-29T08:14:38.085Z,44.78
2023-03-29T08:17:04.594Z,45.32
2023-03-29T08:19:31.022Z,46.40
2023-03-29T08:21:57.410Z,45.67
2023-03-29T08:24:23.804Z,45.61
2023-03-29T08:26:50.173Z,45.70
2023-03-29T08:29:16.573Z,46.12
2023-03-29T08:31:43.000Z,45.35
2023-03-29T08:34:09.428Z,44.32
2023-03-29T08:36:35.828Z,44.83
2023-03-29T08:39:02.211Z,44.76
2023-03-29T08:41:28.611Z,44.53
2023-03-29T08:43:55.012Z,44.74
2023-03-29T08:46:21.486Z,45.54
2023-03-29T08:48:47.888Z,44.54
2023-03-29T08:51:14.282Z,44.47
2023-03-29T08:53:40.677Z,44.19
2023-03-29T08:56:07.061Z,43.27
2023-03-29T08:58:33.443Z,43.83
2023-03-29T09:01:00.118Z,42.98
2023-03-29T09:03:26.884Z,40.76
2023-03-29T09:05:53.336Z,39.80
2023-03-29T09:08:19.789Z,39.61
2023-03-29T09:10:46.287Z,43.27
2023-03-29T09:13:12.776Z,41.56
2023-03-29T09:15:39.782Z,43.27
2023-03-29T09:18:06.238Z,40.52
2023-03-29T09:20:32.722Z,41.03
2023-03-29T09:22:59.115Z,41.54
2023-03-29T09:25:25.519Z,41.53
2023-03-29T09:27:51.913Z,41.70
2023-03-29T09:30:18.358Z,41.38
2023-03-29T09:32:44.876Z,41.30
2023-03-29T09:35:11.272Z,41.45
2023-03-29T09:37:37.706Z,41.85
2023-03-29T09:40:05.217Z,41.71
2023-03-29T09:42:31.782Z,40.46
2023-03-29T09:44:58.195Z,39.20
2023-03-29T09:47:24.646Z,39.89
2023-03-29T09:49:51.039Z,41.37
2023-03-29T09:52:17.428Z,40.69
2023-03-29T09:54:43.848Z,39.97
2023-03-29T09:57:10.306Z,38.98
2023-03-29T09:59:36.713Z,38.89
2023-03-29T10:02:03.134Z,40.89
2023-03-29T10:04:29.600Z,39.80
2023-03-29T10:06:56.079Z,39.71
2023-03-29T10:09:22.468Z,41.10
2023-03-29T10:11:48.879Z,40.16
2023-03-29T10:14:15.289Z,41.25
2023-03-29T10:16:41.842Z,39.49
2023-03-29T10:19:08.324Z,42.59
2023-03-29T10:21:34.752Z,40.67
2023-03-29T10:24:01.126Z,42.62
2023-03-29T10:26:27.529Z,42.78
2023-03-29T10:28:53.924Z,44.80
2023-03-29T10:31:20.357Z,44.35
2023-03-29T10:33:46.771Z,44.88
2023-03-29T10:36:13.231Z,45.24
2023-03-29T10:38:39.662Z,45.30
2023-03-29T10:41:06.053Z,44.10
2023-03-29T10:43:32.503Z,45.54
2023-03-29T10:45:59.036Z,45.13
2023-03-29T10:48:25.428Z,43.99
2023-03-29T10:50:51.827Z,44.17
2023-03-29T10:53:18.257Z,44.34
2023-03-29T10:55:44.639Z,43.54
2023-03-29T10:58:11.054Z,43.88
2023-03-29T11:00:37.479Z,43.58
2023-03-29T11:03:03.954Z,44.49
2023-03-29T11:05:30.446Z,43.68
2023-03-29T11:07:56.834Z,44.89
2023-03-29T11:10:23.237Z,44.99
2023-03-29T11:12:49.658Z,44.34
2023-03-29T11:15:16.048Z,46.06
2023-03-29T11:17:42.487Z,44.08
2023-03-29T11:20:08.871Z,43.65
2023-03-29T11:22:35.276Z,44.46
2023-03-29T11:25:01.665Z,44.73
2023-03-29T11:27:28.079Z,44.28
2023-03-29T11:29:54.548Z,44.52
2023-03-29T11:32:20.999Z,42.53
2023-03-29T11:34:47.421Z,43.47
2023-03-29T11:37:13.814Z,43.95
2023-03-29T11:39:40.196Z,43.64
2023-03-29T11:42:06.618Z,44.93
2023-03-29T11:44:33.101Z,44.07
2023-03-29T11:46:59.524Z,43.67
2023-03-29T11:49:25.936Z,43.95
2023-03-29T11:51:52.343Z,43.53
2023-03-29T11:54:18.736Z,42.88
2023-03-29T11:56:45.185Z,42.64
2023-03-29T11:59:11.646Z,43.48
2023-03-29T12:01:38.120Z,43.40
2023-03-29T12:04:04.611Z,42.99
2023-03-29T12:06:31.116Z,43.81
2023-03-29T12:08:57.514Z,41.80
2023-03-29T12:11:23.918Z,42.99
2023-03-29T12:13:50.321Z,42.68
2023-03-29T12:16:16.767Z,43.34
2023-03-29T12:18:43.211Z,42.21
2023-03-29T12:21:09.642Z,45.62
2023-03-29T12:23:36.049Z,45.15
2023-03-29T12:26:02.461Z,45.24
2023-03-29T12:28:28.881Z,45.10
2023-03-29T12:30:55.281Z,45.30
2023-03-29T12:33:21.668Z,46.52
2023-03-29T12:35:48.119Z,43.84
2023-03-29T12:38:14.539Z,44.14
2023-03-29T12:40:40.967Z,44.43
2023-03-29T12:43:07.365Z,43.93
2023-03-29T12:45:33.749Z,41.49
2023-03-29T12:48:00.205Z,41.78
2023-03-29T12:50:26.661Z,41.84
2023-03-29T12:52:53.052Z,39.30
2023-03-29T12:55:19.417Z,38.32
2023-03-29T12:57:45.839Z,37.42
2023-03-29T13:00:12.228Z,37.26
2023-03-29T13:02:38.908Z,36.64
2023-03-29T13:05:05.600Z,36.15
2023-03-29T13:07:32.087Z,36.28
2023-03-29T13:09:58.520Z,36.72
2023-03-29T13:12:24.921Z,35.51
2023-03-29T13:14:51.323Z,36.30
2023-03-29T13:17:19.020Z,34.84
2023-03-29T13:19:45.715Z,35.67
2023-03-29T13:22:12.138Z,37.37
2023-03-29T13:24:38.538Z,35.77
2023-03-29T13:27:04.914Z,38.46
2023-03-29T13:29:31.324Z,36.13
2023-03-29T13:31:57.694Z,38.31
2023-03-29T13:34:24.078Z,37.00
2023-03-29T13:36:50.499Z,34.81
2023-03-29T13:39:16.893Z,35.99
2023-03-29T13:41:43.295Z,37.74
2023-03-29T13:44:09.695Z,37.40
2023-03-29T13:46:36.100Z,36.41
2023-03-29T13:49:02.534Z,35.32
2023-03-29T13:51:28.960Z,37.10
2023-03-29T13:53:55.356Z,39.58
2023-03-29T13:56:21.742Z,39.11
2023-03-29T13:58:48.166Z,39.55
2023-03-29T14:01:14.659Z,40.23
2023-03-29T14:03:41.221Z,40.91
2023-03-29T14:06:07.627Z,38.16
2023-03-29T14:08:35.813Z,41.53
2023-03-29T14:11:02.407Z,40.16
2023-03-29T14:13:28.825Z,38.48
2023-03-29T14:15:55.264Z,37.81
2023-03-29T14:18:21.655Z,39.45
2023-03-29T14:20:48.060Z,40.18
2023-03-29T14:23:16.121Z,38.69
2023-03-29T14:25:42.665Z,38.52
2023-03-29T14:28:09.045Z,38.59
2023-03-29T14:30:35.446Z,39.11
2023-03-29T14:33:01.878Z,38.29
2023-03-29T14:35:28.322Z,38.52
2023-03-29T14:37:54.752Z,38.04
2023-03-29T14:40:21.228Z,37.65
2023-03-29T14:42:47.649Z,37.73
2023-03-29T14:45:14.081Z,38.11
2023-03-29T14:47:40.512Z,38.96
2023-03-29T14:50:06.954Z,39.11
2023-03-29T14:52:33.362Z,39.97
2023-03-29T14:54:59.794Z,38.91
2023-03-29T14:57:26.319Z,39.71
2023-03-29T14:59:52.877Z,39.75
2023-03-29T15:02:19.322Z,39.49
2023-03-29T15:04:45.745Z,39.38
2023-03-29T15:07:12.143Z,39.86
2023-03-29T15:09:38.541Z,39.27
2023-03-29T15:12:04.922Z,39.75
2023-03-29T15:14:31.329Z,39.66
2023-03-29T15:16:57.705Z,41.04
2023-03-29T15:19:24.094Z,40.27
2023-03-29T15:21:50.504Z,40.68
2023-03-29T15:24:16.912Z,39.98
2023-03-29T15:26:43.325Z,41.64
2023-03-29T15:29:09.719Z,41.42
2023-03-29T15:31:36.181Z,41.94
2023-03-29T15:34:02.594Z,41.68
2023-03-29T15:36:28.973Z,41.12
2023-03-29T15:38:55.366Z,41.11
2023-03-29T15:41:21.752Z,41.46
2023-03-29T15:43:48.155Z,40.54
2023-03-29T15:46:14.632Z,41.50
2023-03-29T15:48:41.055Z,42.73
2023-03-29T15:51:07.520Z,42.16
2023-03-29T15:53:33.978Z,42.31
2023-03-29T15:56:00.527Z,41.54
2023-03-29T15:58:27.048Z,42.09
2023-03-29T16:00:53.505Z,42.58
2023-03-29T16:03:19.975Z,42.72
2023-03-29T16:05:46.401Z,43.22
2023-03-29T16:08:12.787Z,42.33
2023-03-29T16:10:39.178Z,42.55
2023-03-29T16:13:05.576Z,42.68
2023-03-29T16:15:31.967Z,42.81
2023-03-29T16:17:58.446Z,42.47
2023-03-29T16:20:24.881Z,42.65
2023-03-29T16:22:51.330Z,42.27
2023-03-29T16:25:17.802Z,43.21
2023-03-29T16:27:44.213Z,43.32
2023-03-29T16:30:10.620Z,42.22
2023-03-29T16:32:37.062Z,42.28
2023-03-29T16:35:03.472Z,42.89
2023-03-29T16:37:29.865Z,42.76
2023-03-29T16:39:56.444Z,43.22
2023-03-29T16:42:22.896Z,43.12
2023-03-29T16:44:49.303Z,43.63
2023-03-29T16:47:15.854Z,43.90
2023-03-29T16:49:43.729Z,43.93
2023-03-29T16:52:12.123Z,44.29
2023-03-29T16:54:38.584Z,43.77
2023-03-29T16:57:05.017Z,44.22
2023-03-29T16:59:31.426Z,43.80
2023-03-29T17:01:57.858Z,43.77
2023-03-29T17:04:24.293Z,43.33
2023-03-29T17:06:50.757Z,43.98
2023-03-29T17:09:17.247Z,44.00
2023-03-29T17:11:43.752Z,44.26
2023-03-29T17:14:10.433Z,43.99
2023-03-29T17:16:36.916Z,43.74
2023-03-29T17:19:03.362Z,43.71
2023-03-29T17:21:29.800Z,44.17
2023-03-29T17:23:56.192Z,44.16
2023-03-29T17:26:22.672Z,43.75
2023-03-29T17:28:49.095Z,44.25
2023-03-29T17:31:15.535Z,43.57
2023-03-29T17:33:41.973Z,43.77
2023-03-29T17:36:08.812Z,44.06
2023-03-29T17:38:35.345Z,43.62
2023-03-29T17:41:01.747Z,43.97
2023-03-29T17:43:28.155Z,44.00
2023-03-29T17:45:54.536Z,43.83
2023-03-29T17:48:21.064Z,43.93
2023-03-29T17:50:47.563Z,43.92
2023-03-29T17:53:13.971Z,44.15
2023-03-29T17:55:40.383Z,43.37
2023-03-29T17:58:06.790Z,43.54
2023-03-29T18:00:33.183Z,43.78
2023-03-29T18:02:59.617Z,44.16
2023-03-29T18:05:26.051Z,44.37
2023-03-29T18:07:52.435Z,43.97
2023-03-29T18:10:18.840Z,44.23
2023-03-29T18:12:45.205Z,44.70
2023-03-29T18:15:11.603Z,44.39
2023-03-29T18:17:38.006Z,43.96
2023-03-29T18:20:04.417Z,44.83
2023-03-29T18:22:30.802Z,44.63
2023-03-29T18:24:57.209Z,45.02
2023-03-29T18:27:23.681Z,45.01
2023-03-29T18:29:50.074Z,45.11
2023-03-29T18:32:16.521Z,45.23
2023-03-29T18:34:43.040Z,45.17
2023-03-29T18:37:09.429Z,45.33
2023-03-29T18:39:35.836Z,44.33
2023-03-29T18:42:02.245Z,44.42
2023-03-29T18:44:28.666Z,44.44
2023-03-29T18:46:55.064Z,44.28
2023-03-29T18:49:21.454Z,44.69
2023-03-29T18:51:47.868Z,44.22
2023-03-29T18:54:14.286Z,44.28
2023-03-29T18:56:40.737Z,44.42
2023-03-29T18:59:07.139Z,44.18
2023-03-29T19:01:33.625Z,43.90
2023-03-29T19:04:00.109Z,44.36
2023-03-29T19:06:26.612Z,44.39
2023-03-29T19:08:52.976Z,44.07
2023-03-29T19:11:19.408Z,44.66
2023-03-29T19:13:45.926Z,45.52
2023-03-29T19:16:12.421Z,45.55
2023-03-29T19:18:38.824Z,45.33
2023-03-29T19:21:05.290Z,45.52
2023-03-29T19:23:31.692Z,46.98
2023-03-29T19:25:58.101Z,48.46
2023-03-29T19:28:24.536Z,48.31
2023-03-29T19:30:50.928Z,49.64
2023-03-29T19:33:17.407Z,50.04
2023-03-29T19:35:43.823Z,50.00
2023-03-29T19:38:10.268Z,49.69
2023-03-29T19:40:36.675Z,49.14
2023-03-29T19:43:03.078Z,48.61
2023-03-29T19:45:29.467Z,48.30
2023-03-29T19:47:55.896Z,47.59
2023-03-29T19:50:22.336Z,48.42
2023-03-29T19:52:48.767Z,50.80
2023-03-29T19:55:15.175Z,50.56
2023-03-29T19:57:41.590Z,50.80
2023-03-29T20:00:08.004Z,50.62
2023-03-29T20:02:34.405Z,50.67
2023-03-29T20:05:00.809Z,50.52
2023-03-29T20:07:27.195Z,50.12
2023-03-29T20:09:53.655Z,49.80
2023-03-29T20:12:20.054Z,49.73
2023-03-29T20:14:46.469Z,49.40
2023-03-29T20:17:12.880Z,49.55
2023-03-29T20:19:39.291Z,49.97
2023-03-29T20:22:05.732Z,52.12
2023-03-29T20:24:32.128Z,51.22
2023-03-29T20:26:58.498Z,52.21
2023-03-29T20:29:24.932Z,50.96
2023-03-29T20:31:51.379Z,50.41
2023-03-29T20:34:17.801Z,49.90
2023-03-29T20:36:44.212Z,49.55
2023-03-29T20:39:10.583Z,49.44
2023-03-29T20:41:37.009Z,49.24
2023-03-29T20:44:03.405Z,50.11
2023-03-29T20:46:29.851Z,49.54
2023-03-29T20:48:56.294Z,50.30
2023-03-29T20:51:22.699Z,50.81
2023-03-29T20:53:49.073Z,51.16
2023-03-29T20:56:15.442Z,50.17
2023-03-29T20:58:41.906Z,51.04
2023-03-29T21:01:08.495Z,51.16
2023-03-29T21:03:34.966Z,50.76
2023-03-29T21:06:01.477Z,50.89
2023-03-29T21:08:27.892Z,50.17
2023-03-29T21:10:54.359Z,50.42
2023-03-29T21:13:20.776Z,50.25
2023-03-29T21:15:47.283Z,49.67
2023-03-29T21:18:13.756Z,49.75
2023-03-29T21:20:40.145Z,49.79
2023-03-29T21:23:06.565Z,50.90
2023-03-29T21:25:32.989Z,50.33
2023-03-29T21:27:59.664Z,50.58
2023-03-29T21:30:26.079Z,51.54
2023-03-29T21:32:52.560Z,51.81
2023-03-29T21:35:19.054Z,51.70
2023-03-29T21:37:45.454Z,51.43
2023-03-29T21:40:11.831Z,51.20
2023-03-29T21:42:38.223Z,50.79
2023-03-29T21:45:04.629Z,50.57
2023-03-29T21:47:31.111Z,50.38
2023-03-29T21:49:57.544Z,50.29
2023-03-29T21:52:23.985Z,51.47
2023-03-29T21:54:50.382Z,52.43
2023-03-29T21:57:16.826Z,52.32
2023-03-29T21:59:43.274Z,52.71
2023-03-29T22:02:09.716Z,52.68
2023-03-29T22:04:37.411Z,52.08
2023-03-29T22:07:04.215Z,53.00
2023-03-29T22:09:30.633Z,52.01
2023-03-29T22:11:57.033Z,51.92
2023-03-29T22:14:23.433Z,51.74
2023-03-29T22:16:49.890Z,52.49
2023-03-29T22:19:16.372Z,54.46
2023-03-29T22:21:42.793Z,54.63
2023-03-29T22:24:09.202Z,55.14
2023-03-29T22:26:35.638Z,56.04
2023-03-29T22:29:02.089Z,56.81
2023-03-29T22:31:28.545Z,57.30
2023-03-29T22:33:55.018Z,56.36
2023-03-29T22:36:21.435Z,56.18
2023-03-29T22:38:47.841Z,56.51
2023-03-29T22:41:14.233Z,56.78
2023-03-29T22:43:40.625Z,56.57
2023-03-29T22:46:07.054Z,56.30
2023-03-29T22:48:33.491Z,56.42
2023-03-29T22:50:59.915Z,58.68
2023-03-29T22:53:26.301Z,59.06
2023-03-29T22:55:52.744Z,61.33
2023-03-29T22:58:19.128Z,60.38
2023-03-29T23:00:45.504Z,61.35
2023-03-29T23:03:11.890Z,60.87
2023-03-29T23:05:38.288Z,60.39
2023-03-29T23:08:04.729Z,59.80
2023-03-29T23:10:31.144Z,60.19
2023-03-29T23:12:57.532Z,60.28
2023-03-29T23:15:24.047Z,60.25
2023-03-29T23:17:50.507Z,61.71
2023-03-29T23:20:16.927Z,60.82
2023-03-29T23:22:43.346Z,60.78
2023-03-29T23:25:09.729Z,60.74
2023-03-29T23:27:36.146Z,59.34
2023-03-29T23:30:02.558Z,59.68
2023-03-29T23:32:28.980Z,59.09
2023-03-29T23:34:55.384Z,59.30
2023-03-29T23:37:21.777Z,59.54
2023-03-29T23:39:48.151Z,59.34
2023-03-29T23:42:14.546Z,59.32
2023-03-29T23:44:40.961Z,60.22
2023-03-29T23:47:07.442Z,60.26
2023-03-29T23:49:33.945Z,60.14
2023-03-29T23:52:00.380Z,61.73
2023-03-29T23:54:26.786Z,62.35
2023-03-29T23:56:53.258Z,62.86
2023-03-29T23:59:19.645Z,63.08
